ADDS METAR Data INFO
IDs: Format: Raw Decoded Include TAF

Data at: 2148 UTC 15 Dec 2017

KHYS 152056Z AUTO 24017G22KT 10SM CLR 14/M08 A2995 RMK AO2 SLP150 T01441083 56038
KHYS 151956Z AUTO 25016G23KT 10SM CLR 13/M06 A2999 RMK AO2 SLP164 T01331061
KHYS 151856Z AUTO 24019G24KT 10SM CLR 12/M05 A3002 RMK AO2 SLP178 T01171050
KHYS 151756Z AUTO 23014KT 10SM CLR 08/M04 A3007 RMK AO2 SLP195 T00831039 10083 21078 58021
KHYS 151656Z AUTO 27012KT 10SM CLR 04/M04 A3012 RMK AO2 SLP215 T00391044
KHYS 151556Z AUTO 10SM CLR M02/M06 A3012 RMK AO2 SLP217 T10221061 FZRANO $
KHYS 151456Z AUTO 22007KT 10SM CLR M06/M08 A3013 RMK AO2 SLP227 T10611083 58017 FZRANO
KHYS 151356Z AUTO 26006KT 10SM CLR M08/M09 A3015 RMK AO2 SLP236 T10781094 FZRANO
KHYS 151256Z AUTO 28006KT 10SM CLR M07/M09 A3017 RMK AO2 SLP240 T10721089 FZRANO
KHYS 151156Z AUTO 28004KT 10SM CLR M06/M08 A3019 RMK AO2 SLP243 T10611078 11022 21067 58013 FZRANO
KHYS 151056Z AUTO 27005KT 10SM CLR M07/M08 A3021 RMK AO2 SLP249 T10671083 FZRANO TSNO
KHYS 150956Z AUTO 27007KT 10SM CLR M05/M07 A3022 RMK AO2 SLP251 T10501067 FZRANO
KHYS 150856Z AUTO 30006KT 10SM BKN036 M03/M05 A3023 RMK AO2 SLP253 T10281050 58002 FZRANO
KHYS 150756Z AUTO 30007KT 10SM BKN032 M03/M05 A3023 RMK AO2 SLP252 T10331050 FZRANO
KHYS 150656Z AUTO 30008KT 10SM BKN055 M04/M06 A3024 RMK AO2 SLP254 T10391056 FZRANO
KHYS 150556Z AUTO 29004KT 10SM CLR M02/M05 A3024 RMK AO2 SLP253 60000 T10221050 10033 21022 400831033 50004 FZRANO
KHYS 150456Z AUTO 35007KT 10SM FEW026 00/M03 A3024 RMK AO2 RAB37E47 SLP253 P0000 T00001033 FZRANO
KHYS 150356Z AUTO 33010KT 10SM OVC060 03/M03 A3023 RMK AO2 UPB23E37RAB37E47 SLP249 P0000 T00281033
KHYS 150256Z AUTO 34007KT 10SM SCT047 OVC060 00/M04 A3022 RMK AO2 SLP252 T00001039 51018 FZRANO
KHYS 150056Z AUTO 34009KT 10SM CLR 01/M04 A3020 RMK AO2 SLP244 T00111039 FZRANO
KHYS 142356Z AUTO 34014KT 10SM FEW085 04/M03 A3017 RMK AO2 SLP231 60000 T00391033 10083 20039 53016
KHYS 142256Z AUTO 35018KT 10SM CLR 05/M03 A3014 RMK AO2 PK WND 35026/2215 SLP220 T00501028
KHYS 142156Z AUTO 35018G25KT 10SM FEW038 BKN048 BKN120 07/M03 A3012 RMK AO2 PK WND 33026/2143 RAE04 SLP210 P0000 T00671028
KHYS 142056Z AUTO 35013KT 10SM -RA OVC045 06/00 A3012 RMK AO2 RAB31 SLP209 P0000 60000 T00560000 55004
KHYS 141956Z AUTO 33012KT 10SM OVC045 08/M02 A3010 RMK AO2 SLP199 T00831022
KHYS 141856Z AUTO 32009KT 10SM FEW041 08/M02 A3011 RMK AO2 SLP206 T00781017
KHYS 141756Z AUTO 30014KT 10SM FEW085 07/M02 A3013 RMK AO2 SLP213 T00721017 10072 21033 58001
KHYS 141656Z AUTO 31012KT 10SM FEW075 07/M02 A3014 RMK AO2 SLP219 T00671017
KHYS 141556Z AUTO 31010KT 10SM CLR 05/M03 A3014 RMK AO2 SLP219 T00501033
KHYS 141456Z AUTO 29006KT 10SM CLR 02/M05 A3013 RMK AO2 SLP219 T00171050 58001 FZRANO
KHYS 141356Z AUTO 27007KT 9SM CLR M03/M07 A3013 RMK AO2 SLP222 T10281067 FZRANO
KHYS 141256Z AUTO 28004KT 10SM CLR M02/M06 A3013 RMK AO2 SLP220 T10171056 FZRANO
KHYS 141156Z AUTO 00000KT 10SM OVC080 M01/M06 A3013 RMK AO2 SLP217 T10061056 10044 21022 53015 FZRANO
KHYS 141056Z AUTO 01005KT 10SM CLR 01/M06 A3011 RMK AO2 SLP205 T00061061 FZRANO
KHYS 140956Z AUTO 01010KT 10SM BKN100 03/M06 A3009 RMK AO2 SLP195 T00331056